createdAt,value
2023-02-08T00:01:56.476Z,11.10
2023-02-08T00:04:24.854Z,11.60
2023-02-08T00:06:55.495Z,12.90
2023-02-08T00:09:25.302Z,11.70
2023-02-08T00:11:53.885Z,11.50
2023-02-08T00:14:22.465Z,10.90
2023-02-08T00:16:50.780Z,12.70
2023-02-08T00:19:19.229Z,12.50
2023-02-08T00:21:47.603Z,12.20
2023-02-08T00:24:15.983Z,11.70
2023-02-08T00:26:44.871Z,12.10
2023-02-08T00:29:13.072Z,11.50
2023-02-08T00:31:42.003Z,12.20
2023-02-08T00:34:10.305Z,11.30
2023-02-08T00:36:38.890Z,11.60
2023-02-08T00:39:08.697Z,13.10
2023-02-08T00:41:37.313Z,13.00
2023-02-08T00:44:06.271Z,12.90
2023-02-08T00:46:35.590Z,11.70
2023-02-08T00:49:04.265Z,12.00
2023-02-08T00:51:32.756Z,13.50
2023-02-08T00:54:01.729Z,12.30
2023-02-08T00:56:30.468Z,13.00
2023-02-08T00:59:00.955Z,12.60
2023-02-08T01:01:29.529Z,12.10
2023-02-08T01:03:58.319Z,12.10
2023-02-08T01:09:52.415Z,12.70
2023-02-08T01:12:20.907Z,12.60
2023-02-08T01:14:49.380Z,12.90
2023-02-08T01:17:18.572Z,11.90
2023-02-08T01:19:46.962Z,12.00
2023-02-08T01:22:15.745Z,13.20
2023-02-08T01:24:44.218Z,11.80
2023-02-08T01:27:12.496Z,12.30
2023-02-08T01:29:41.110Z,11.80
2023-02-08T01:32:09.457Z,11.00
2023-02-08T01:34:38.387Z,13.00
2023-02-08T01:37:06.938Z,12.00
2023-02-08T01:39:35.334Z,13.50
2023-02-08T01:42:05.012Z,13.20
2023-02-08T01:45:11.278Z,12.70
2023-02-08T01:47:39.761Z,12.20
2023-02-08T01:50:08.146Z,11.50
2023-02-08T01:52:37.027Z,12.70
2023-02-08T01:55:09.589Z,12.20
2023-02-08T01:57:37.984Z,11.70
2023-02-08T02:00:09.368Z,13.20
2023-02-08T02:02:44.771Z,12.60
2023-02-08T02:05:12.948Z,13.00
2023-02-08T02:07:43.270Z,11.50
2023-02-08T02:10:26.306Z,11.80
2023-02-08T02:12:55.732Z,13.00
2023-02-08T02:15:24.179Z,11.90
2023-02-08T02:17:53.274Z,13.00
2023-02-08T02:20:50.626Z,12.20
2023-02-08T02:23:55.447Z,12.60
2023-02-08T02:26:28.954Z,12.00
2023-02-08T02:29:22.656Z,12.20
2023-02-08T02:32:13.122Z,12.00
2023-02-08T02:34:58.090Z,10.90
2023-02-08T02:37:30.766Z,11.30
2023-02-08T02:40:33.961Z,12.50
2023-02-08T02:43:36.949Z,11.30
2023-02-08T02:46:21.201Z,11.80
2023-02-08T02:49:07.910Z,11.60
2023-02-08T02:51:49.808Z,13.10
2023-02-08T02:54:23.938Z,11.70
2023-02-08T02:56:53.943Z,12.30
2023-02-08T02:59:22.435Z,11.40
2023-02-08T03:01:50.898Z,11.50
2023-02-08T03:04:32.773Z,11.50
2023-02-08T03:07:20.042Z,11.50
2023-02-08T03:10:27.405Z,10.50
2023-02-08T03:13:26.199Z,10.70
2023-02-08T03:16:18.278Z,10.90
2023-02-08T03:18:55.623Z,11.50
2023-02-08T03:21:36.700Z,11.40
2023-02-08T03:24:11.293Z,11.40
2023-02-08T03:27:00.793Z,11.70
2023-02-08T03:29:44.326Z,11.90
2023-02-08T03:32:52.248Z,12.40
2023-02-08T03:35:24.279Z,11.00
2023-02-08T03:38:17.966Z,12.20
2023-02-08T03:40:48.190Z,11.20
2023-02-08T03:43:32.236Z,9.70
2023-02-08T03:46:11.102Z,10.40
2023-02-08T03:48:41.929Z,10.40
2023-02-08T03:51:10.681Z,11.90
2023-02-08T03:53:40.796Z,10.40
2023-02-08T03:56:13.687Z,10.70
2023-02-08T03:58:50.188Z,10.20
2023-02-08T04:01:40.468Z,11.30
2023-02-08T04:04:09.019Z,11.20
2023-02-08T04:06:37.707Z,11.00
2023-02-08T04:09:06.390Z,10.70
2023-02-08T04:11:36.917Z,11.00
2023-02-08T04:14:05.713Z,9.60
2023-02-08T04:16:33.983Z,10.60
2023-02-08T04:19:03.095Z,10.80
2023-02-08T04:21:31.875Z,10.00
2023-02-08T04:24:01.365Z,10.60
2023-02-08T04:26:29.956Z,9.80
2023-02-08T04:28:58.600Z,10.10
2023-02-08T04:31:27.062Z,10.30
2023-02-08T04:33:55.704Z,10.20
2023-02-08T04:36:24.283Z,10.10
2023-02-08T04:38:52.868Z,9.40
2023-02-08T04:41:21.155Z,9.70
2023-02-08T04:43:49.647Z,9.70
2023-02-08T04:46:18.803Z,8.90
2023-02-08T04:48:47.506Z,8.90
2023-02-08T04:51:15.885Z,9.10
2023-02-08T04:53:45.011Z,9.90
2023-02-08T04:56:14.792Z,8.20
2023-02-08T04:58:43.487Z,9.60
2023-02-08T05:01:11.974Z,9.90
2023-02-08T05:03:40.364Z,9.20
2023-02-08T05:06:09.018Z,10.40
2023-02-08T05:08:37.269Z,9.70
2023-02-08T05:11:06.182Z,9.10
2023-02-08T05:13:34.869Z,9.30
2023-02-08T05:16:03.394Z,8.80
2023-02-08T05:18:32.340Z,9.50
2023-02-08T05:21:00.984Z,8.90
2023-02-08T05:23:29.814Z,9.10
2023-02-08T05:25:58.291Z,9.00
2023-02-08T05:28:26.746Z,8.70
2023-02-08T05:30:55.268Z,9.70
2023-02-08T05:33:23.766Z,9.80
2023-02-08T05:35:52.519Z,9.70
2023-02-08T05:38:21.039Z,9.10
2023-02-08T05:40:49.327Z,8.90
2023-02-08T05:43:17.662Z,8.60
2023-02-08T05:45:45.925Z,8.90
2023-02-08T05:48:14.612Z,9.30
2023-02-08T05:50:43.406Z,8.80
2023-02-08T05:53:12.184Z,9.30
2023-02-08T05:55:40.777Z,8.30
2023-02-08T05:58:09.162Z,9.00
2023-02-08T06:00:38.155Z,9.70
2023-02-08T06:03:06.873Z,8.10
2023-02-08T06:05:37.979Z,8.10
2023-02-08T06:08:06.342Z,8.40
2023-02-08T06:10:37.494Z,8.70
2023-02-08T06:13:05.966Z,8.60
2023-02-08T06:15:34.958Z,8.50
2023-02-08T06:18:03.850Z,9.00
2023-02-08T06:20:32.638Z,8.00
2023-02-08T06:23:01.935Z,7.80
2023-02-08T06:25:30.420Z,8.00
2023-02-08T06:27:59.044Z,8.60
2023-02-08T06:30:27.583Z,8.30
2023-02-08T06:32:56.337Z,8.80
2023-02-08T06:35:24.754Z,7.50
2023-02-08T06:37:54.558Z,8.00
2023-02-08T06:40:23.040Z,8.50
2023-02-08T06:42:52.341Z,8.30
2023-02-08T06:45:20.922Z,8.60
2023-02-08T06:47:49.507Z,8.40
2023-02-08T06:50:18.090Z,7.70
2023-02-08T06:52:47.969Z,7.90
2023-02-08T06:55:16.278Z,8.60
2023-02-08T06:57:44.860Z,8.60
2023-02-08T07:00:14.261Z,8.50
2023-02-08T07:02:42.661Z,9.90
2023-02-08T07:05:11.119Z,9.10
2023-02-08T07:07:41.342Z,8.90
2023-02-08T07:10:09.924Z,8.70
2023-02-08T07:12:39.123Z,9.60
2023-02-08T07:15:08.625Z,8.60
2023-02-08T07:17:37.139Z,9.50
2023-02-08T07:20:06.304Z,9.10
2023-02-08T07:22:35.401Z,9.30
2023-02-08T07:25:04.701Z,8.90
2023-02-08T07:27:33.078Z,8.90
2023-02-08T07:30:01.593Z,8.80
2023-02-08T07:32:30.043Z,8.70
2023-02-08T07:34:58.929Z,8.60
2023-02-08T07:37:27.307Z,9.20
2023-02-08T07:39:56.827Z,9.10
2023-02-08T07:42:25.050Z,9.40
2023-02-08T07:47:25.123Z,8.80
2023-02-08T07:49:53.741Z,9.10
2023-02-08T07:52:22.082Z,9.00
2023-02-08T07:54:50.973Z,9.90
2023-02-08T07:57:22.132Z,9.00
2023-02-08T07:59:51.611Z,9.10
2023-02-08T08:02:21.567Z,10.00
2023-02-08T08:04:50.016Z,9.40
2023-02-08T08:07:18.805Z,11.90
2023-02-08T08:09:47.700Z,9.30
2023-02-08T08:12:16.071Z,8.40
2023-02-08T08:14:44.591Z,9.20
2023-02-08T08:17:13.343Z,10.00
2023-02-08T08:19:42.434Z,8.50
2023-02-08T08:22:10.917Z,8.00
2023-02-08T08:24:39.395Z,9.10
2023-02-08T08:27:08.183Z,7.90
2023-02-08T08:29:38.508Z,8.10
2023-02-08T08:32:09.261Z,8.60
2023-02-08T08:34:38.851Z,9.10
2023-02-08T08:37:07.326Z,8.70
2023-02-08T08:39:37.443Z,8.50
2023-02-08T08:42:06.238Z,8.10
2023-02-08T08:44:34.919Z,7.80
2023-02-08T08:47:03.605Z,8.90
2023-02-08T08:49:31.887Z,9.20
2023-02-08T08:52:00.981Z,9.30
2023-02-08T08:54:29.678Z,9.20
2023-02-08T08:56:58.445Z,9.10
2023-02-08T08:59:27.239Z,7.40
2023-02-08T09:01:56.154Z,8.40
2023-02-08T09:04:24.832Z,7.30
2023-02-08T09:06:53.592Z,7.50
2023-02-08T09:09:22.102Z,7.70
2023-02-08T09:11:50.659Z,8.10
2023-02-08T09:14:19.169Z,7.80
2023-02-08T09:16:48.241Z,7.50
2023-02-08T09:19:16.623Z,8.60
2023-02-08T09:21:45.027Z,8.20
2023-02-08T09:24:13.667Z,11.50
2023-02-08T09:26:41.944Z,7.80
2023-02-08T09:29:10.143Z,7.50
2023-02-08T09:31:39.800Z,7.10
2023-02-08T09:34:09.535Z,7.50
2023-02-08T09:36:39.768Z,7.50
2023-02-08T09:39:11.208Z,7.60
2023-02-08T09:41:43.172Z,8.70
2023-02-08T09:44:33.474Z,7.00
2023-02-08T09:47:10.648Z,7.40
2023-02-08T09:49:47.220Z,7.60
2023-02-08T09:52:17.033Z,7.40
2023-02-08T09:54:49.473Z,7.00
2023-02-08T09:57:20.647Z,6.90
2023-02-08T09:59:54.632Z,7.50
2023-02-08T10:02:22.935Z,7.50
2023-02-08T10:04:57.664Z,7.00
2023-02-08T10:07:27.071Z,7.10
2023-02-08T10:09:56.978Z,6.90
2023-02-08T10:12:38.817Z,6.70
2023-02-08T10:15:22.203Z,7.00
2023-02-08T10:18:19.203Z,7.30
2023-02-08T10:20:54.489Z,7.20
2023-02-08T10:23:55.840Z,7.10
2023-02-08T10:26:39.808Z,6.80
2023-02-08T10:29:30.003Z,6.50
2023-02-08T10:32:35.834Z,6.10
2023-02-08T10:35:10.861Z,7.30
2023-02-08T10:37:41.902Z,6.20
2023-02-08T10:40:19.089Z,7.80
2023-02-08T10:43:19.927Z,5.60
2023-02-08T10:46:15.970Z,6.00
2023-02-08T10:48:47.347Z,4.90
2023-02-08T10:51:21.440Z,7.10
2023-02-08T10:53:50.609Z,7.10
2023-02-08T10:56:28.341Z,6.70
2023-02-08T10:58:58.029Z,7.10
2023-02-08T11:01:26.714Z,7.00
2023-02-08T11:04:21.463Z,4.80
2023-02-08T11:06:51.555Z,5.40
2023-02-08T11:09:23.782Z,7.30
2023-02-08T11:11:56.942Z,5.30
2023-02-08T11:14:35.078Z,4.50
2023-02-08T11:17:30.896Z,5.40
2023-02-08T11:19:59.889Z,5.20
2023-02-08T11:22:31.353Z,4.70
2023-02-08T11:25:05.653Z,5.40
2023-02-08T11:27:45.713Z,4.40
2023-02-08T11:30:14.087Z,6.00
2023-02-08T11:32:44.005Z,7.10
2023-02-08T11:35:12.382Z,5.20
2023-02-08T11:37:40.765Z,6.30
2023-02-08T11:40:18.235Z,5.00
2023-02-08T11:42:47.452Z,5.90
2023-02-08T11:45:33.649Z,4.40
2023-02-08T11:48:02.038Z,5.90
2023-02-08T11:50:37.972Z,5.20
2023-02-08T11:53:08.505Z,6.20
2023-02-08T11:55:38.221Z,4.70
2023-02-08T11:58:13.158Z,4.60
2023-02-08T12:00:42.962Z,5.70
2023-02-08T12:03:19.254Z,3.80
2023-02-08T12:06:26.309Z,4.50
2023-02-08T12:09:20.187Z,4.60
2023-02-08T12:11:55.453Z,5.00
2023-02-08T12:14:46.125Z,5.80
2023-02-08T12:17:26.403Z,4.60
2023-02-08T12:20:18.127Z,4.40
2023-02-08T12:22:59.403Z,4.70
2023-02-08T12:25:31.252Z,3.70
2023-02-08T12:28:20.979Z,3.90
2023-02-08T12:31:29.429Z,4.70
2023-02-08T12:34:19.338Z,3.50
2023-02-08T12:37:19.469Z,3.50
2023-02-08T12:40:09.625Z,4.90
2023-02-08T12:42:42.622Z,3.10
2023-02-08T12:45:35.955Z,4.60
2023-02-08T12:48:16.650Z,4.30
2023-02-08T12:51:08.435Z,3.80
2023-02-08T12:53:45.858Z,4.10
2023-02-08T12:56:17.318Z,4.20
2023-02-08T12:58:49.667Z,3.50
2023-02-08T13:01:31.164Z,4.70
2023-02-08T13:04:08.171Z,4.90
2023-02-08T13:06:45.262Z,4.20
2023-02-08T13:09:45.037Z,3.90
2023-02-08T13:12:27.660Z,3.80
2023-02-08T13:15:30.471Z,4.40
2023-02-08T13:18:10.267Z,6.20
2023-02-08T13:20:48.382Z,4.50
2023-02-08T13:23:21.295Z,4.60
2023-02-08T13:25:51.200Z,4.00
2023-02-08T13:28:23.178Z,4.30
2023-02-08T13:30:58.479Z,4.00
2023-02-08T13:34:00.978Z,4.50
2023-02-08T13:36:37.398Z,4.90
2023-02-08T13:39:07.872Z,5.20
2023-02-08T13:41:37.683Z,4.40
2023-02-08T13:44:17.026Z,4.60
2023-02-08T13:46:49.731Z,4.90
2023-02-08T13:49:49.440Z,4.90
2023-02-08T13:52:46.378Z,4.30
2023-02-08T13:55:36.307Z,4.70
2023-02-08T13:58:14.046Z,4.20
2023-02-08T14:01:11.813Z,4.40
2023-02-08T14:03:40.396Z,4.10
2023-02-08T14:06:25.690Z,4.70
2023-02-08T14:09:13.400Z,4.50
2023-02-08T14:12:34.923Z,3.90
2023-02-08T14:15:16.103Z,4.90
2023-02-08T14:17:45.715Z,4.60
2023-02-08T14:20:22.201Z,4.20
2023-02-08T14:22:58.253Z,4.60
2023-02-08T14:25:30.192Z,4.80
2023-02-08T14:30:30.956Z,4.80
2023-02-08T14:33:07.544Z,4.70
2023-02-08T14:35:38.046Z,4.20
2023-02-08T14:38:24.591Z,4.50
2023-02-08T14:40:58.153Z,3.50
2023-02-08T14:43:30.931Z,4.30
2023-02-08T14:46:38.226Z,4.20
2023-02-08T14:49:17.175Z,5.20
2023-02-08T14:51:59.435Z,6.40
2023-02-08T14:55:02.153Z,5.20
2023-02-08T14:57:35.630Z,5.10
2023-02-08T15:00:16.294Z,4.70
2023-02-08T15:02:45.517Z,5.20
2023-02-08T15:05:31.790Z,5.80
2023-02-08T15:08:01.004Z,5.70
2023-02-08T15:10:30.567Z,5.40
2023-02-08T15:13:21.218Z,6.00
2023-02-08T15:15:52.771Z,6.30
2023-02-08T15:18:31.787Z,6.10
2023-02-08T15:21:07.322Z,6.30
2023-02-08T15:23:35.696Z,7.00
2023-02-08T15:26:06.030Z,7.40
2023-02-08T15:28:35.840Z,7.50
2023-02-08T15:31:09.525Z,8.10
2023-02-08T15:33:43.857Z,10.30
2023-02-08T15:36:31.909Z,7.60
2023-02-08T15:39:10.089Z,7.00
2023-02-08T15:41:38.685Z,6.80
2023-02-08T15:44:30.174Z,6.50
2023-02-08T15:47:04.738Z,7.20
2023-02-08T15:49:41.712Z,7.10
2023-02-08T15:52:15.333Z,7.50
2023-02-08T15:54:44.271Z,6.30
2023-02-08T15:57:31.414Z,7.50
2023-02-08T16:00:00.219Z,7.00
2023-02-08T16:02:31.155Z,6.60
2023-02-08T16:05:00.359Z,8.10
2023-02-08T16:07:32.904Z,15.30
2023-02-08T16:10:01.306Z,14.90
2023-02-08T16:12:30.521Z,16.60
2023-02-08T16:14:59.899Z,14.50
2023-02-08T16:17:32.571Z,13.10
2023-02-08T16:20:01.050Z,11.40
2023-02-08T16:22:32.811Z,12.00
2023-02-08T16:25:30.971Z,13.40
2023-02-08T16:27:59.201Z,10.20
2023-02-08T16:30:27.882Z,9.60
2023-02-08T16:32:56.664Z,9.00
2023-02-08T16:35:29.611Z,9.90
2023-02-08T16:38:00.786Z,8.90
2023-02-08T16:40:51.707Z,8.50
2023-02-08T16:43:32.133Z,8.20
2023-02-08T16:46:10.091Z,7.70
2023-02-08T16:48:41.994Z,8.00
2023-02-08T16:51:18.368Z,7.50
2023-02-08T16:53:47.869Z,8.00
2023-02-08T16:56:16.449Z,8.50
2023-02-08T16:58:45.353Z,8.80
2023-02-08T17:01:14.491Z,9.00
2023-02-08T17:03:43.035Z,9.70
2023-02-08T17:06:28.702Z,9.50
2023-02-08T17:08:58.413Z,9.40
2023-02-08T17:11:27.740Z,11.70
2023-02-08T17:13:56.295Z,10.70
2023-02-08T17:16:26.571Z,9.40
2023-02-08T17:18:54.695Z,9.30
2023-02-08T17:21:23.181Z,9.20
2023-02-08T17:23:51.469Z,9.40
2023-02-08T17:26:23.308Z,9.70
2023-02-08T17:28:51.992Z,10.50
2023-02-08T17:31:20.598Z,10.00
2023-02-08T17:33:50.357Z,10.20
2023-02-08T17:36:19.073Z,10.50
2023-02-08T17:38:47.577Z,10.90
2023-02-08T17:41:17.665Z,12.80
2023-02-08T17:43:46.761Z,16.80
2023-02-08T17:46:20.376Z,11.20
2023-02-08T17:48:48.670Z,11.00
2023-02-08T17:51:21.726Z,10.30
2023-02-08T17:53:50.310Z,9.70
2023-02-08T17:56:20.610Z,11.30
2023-02-08T17:58:51.497Z,11.40
2023-02-08T18:01:24.912Z,11.60
2023-02-08T18:03:53.654Z,9.70
2023-02-08T18:06:23.970Z,10.10
2023-02-08T18:08:53.577Z,9.60
2023-02-08T18:11:23.698Z,10.40
2023-02-08T18:13:53.199Z,10.70
2023-02-08T18:16:23.721Z,9.80
2023-02-08T18:18:57.538Z,10.00
2023-02-08T18:21:26.023Z,10.80
2023-02-08T18:23:55.723Z,10.80
2023-02-08T18:26:25.188Z,11.60
2023-02-08T18:28:53.507Z,12.60
2023-02-08T18:31:22.272Z,10.80
2023-02-08T18:33:51.302Z,12.00
2023-02-08T18:36:20.817Z,11.40
2023-02-08T18:38:51.935Z,11.20
2023-02-08T18:41:22.859Z,10.10
2023-02-08T18:43:51.859Z,11.10
2023-02-08T18:46:21.305Z,10.50
2023-02-08T18:48:51.084Z,11.50
2023-02-08T18:51:20.051Z,11.40
2023-02-08T18:53:51.131Z,10.90
2023-02-08T18:56:23.170Z,10.10
2023-02-08T18:58:53.123Z,11.00
2023-02-08T19:01:22.699Z,11.10
2023-02-08T19:03:52.080Z,11.20
2023-02-08T19:06:25.195Z,11.10
2023-02-08T19:08:56.045Z,10.50
2023-02-08T19:11:32.486Z,12.00
2023-02-08T19:14:02.212Z,11.90
2023-02-08T19:16:31.185Z,10.90
2023-02-08T19:19:04.273Z,11.20
2023-02-08T19:21:33.641Z,10.40
2023-02-08T19:24:02.462Z,11.00
2023-02-08T19:26:37.082Z,11.60
2023-02-08T19:29:07.954Z,10.20
2023-02-08T19:31:38.310Z,11.40
2023-02-08T19:34:10.109Z,11.10
2023-02-08T19:36:42.674Z,12.70
2023-02-08T19:39:17.637Z,11.40
2023-02-08T19:41:46.437Z,11.60
2023-02-08T19:44:16.839Z,10.80
2023-02-08T19:46:55.277Z,10.90
2023-02-08T19:49:26.029Z,10.30
2023-02-08T19:51:55.002Z,10.40
2023-02-08T19:54:23.363Z,9.90
2023-02-08T19:56:54.920Z,8.60
2023-02-08T19:59:26.498Z,8.60
2023-02-08T20:01:55.344Z,10.50
2023-02-08T20:04:23.852Z,11.40
2023-02-08T20:06:53.254Z,10.30
2023-02-08T20:09:24.175Z,9.80
2023-02-08T20:12:00.113Z,9.70
2023-02-08T20:14:33.028Z,10.10
2023-02-08T20:17:02.534Z,9.70
2023-02-08T20:19:31.310Z,10.00
2023-02-08T20:21:59.880Z,10.60
2023-02-08T20:24:28.687Z,10.50
2023-02-08T20:26:57.969Z,9.90
2023-02-08T20:29:28.148Z,9.40
2023-02-08T20:31:57.765Z,10.60
2023-02-08T20:37:11.892Z,9.00
2023-02-08T20:39:40.537Z,9.70
2023-02-08T20:42:10.246Z,9.30
2023-02-08T20:44:38.733Z,9.50
2023-02-08T20:47:09.257Z,9.20
2023-02-08T20:49:42.242Z,9.20
2023-02-08T20:52:10.630Z,9.50
2023-02-08T20:54:39.334Z,8.90
2023-02-08T20:57:11.153Z,9.20
2023-02-08T21:02:09.010Z,9.40
2023-02-08T21:04:37.432Z,10.00
2023-02-08T21:07:05.813Z,9.80
2023-02-08T21:09:34.291Z,10.00
2023-02-08T21:12:04.843Z,9.90
2023-02-08T21:14:33.401Z,9.40
2023-02-08T21:17:05.801Z,10.50
2023-02-08T21:19:35.587Z,9.40
2023-02-08T21:22:04.479Z,11.10
2023-02-08T21:24:32.748Z,10.40
2023-02-08T21:27:01.321Z,10.30
2023-02-08T21:29:29.782Z,11.00
2023-02-08T21:31:58.961Z,10.20
2023-02-08T21:34:27.622Z,9.70
2023-02-08T21:36:56.101Z,10.30
2023-02-08T21:39:24.860Z,10.90
2023-02-08T21:41:53.439Z,10.90
2023-02-08T21:44:23.046Z,10.50
2023-02-08T21:46:51.736Z,10.40
2023-02-08T21:49:38.646Z,10.10
2023-02-08T21:52:25.455Z,9.90
2023-02-08T21:54:54.242Z,10.90
2023-02-08T21:57:25.992Z,9.80
2023-02-08T21:59:56.984Z,9.90
2023-02-08T22:02:27.985Z,10.80
2023-02-08T22:05:16.798Z,10.50
2023-02-08T22:07:47.139Z,10.50
2023-02-08T22:10:16.976Z,9.90
2023-02-08T22:12:47.471Z,10.70
2023-02-08T22:15:18.539Z,10.20
2023-02-08T22:17:46.815Z,10.80
2023-02-08T22:20:16.134Z,11.00
2023-02-08T22:22:46.436Z,10.50
2023-02-08T22:25:15.225Z,9.90
2023-02-08T22:27:44.631Z,10.10
2023-02-08T22:30:14.952Z,9.90
2023-02-08T22:32:44.354Z,10.60
2023-02-08T22:35:14.170Z,10.60
2023-02-08T22:37:43.578Z,10.30
2023-02-08T22:40:13.108Z,11.00
2023-02-08T22:42:42.304Z,11.10
2023-02-08T22:45:10.978Z,10.30
2023-02-08T22:47:39.748Z,11.10
2023-02-08T22:50:09.266Z,10.60
2023-02-08T22:52:37.944Z,10.00
2023-02-08T22:55:06.663Z,9.50
2023-02-08T22:57:35.339Z,10.90
2023-02-08T23:00:07.213Z,10.40
2023-02-08T23:02:35.907Z,10.30
2023-02-08T23:05:04.576Z,10.00
2023-02-08T23:07:33.328Z,11.10
2023-02-08T23:10:06.018Z,11.30
2023-02-08T23:12:34.995Z,10.10
2023-02-08T23:15:04.296Z,10.40
2023-02-08T23:17:32.881Z,10.70
2023-02-08T23:20:01.393Z,11.00
2023-02-08T23:22:30.658Z,10.80
2023-02-08T23:24:59.240Z,10.20
2023-02-08T23:27:28.024Z,10.50
2023-02-08T23:29:56.400Z,10.60
2023-02-08T23:32:25.190Z,10.40
2023-02-08T23:34:53.362Z,10.70
2023-02-08T23:37:21.668Z,11.30
2023-02-08T23:39:50.118Z,11.10
2023-02-08T23:42:27.513Z,11.60
2023-02-08T23:44:56.910Z,10.90
2023-02-08T23:47:26.930Z,10.50
2023-02-08T23:49:55.136Z,9.70
2023-02-08T23:52:23.995Z,11.00
2023-02-08T23:54:52.576Z,11.10
2023-02-08T23:57:20.969Z,10.40
2023-02-08T23:59:49.564Z,10.10
